SBI5348 UBBB-LTFJ
Flight info
| Callsign | SBI5348 |
|---|---|
| Flight time | N/A |
| Altitude | 28000 |
| Route | RASAM N199 LUSAL M11 REBLO UM11 DELEL UR317 TBN UW71 TEMEL UM11 ARLAT UW71 IPSAT UM11 ARSUG UW71 ERKOS UM11 EMLAD UW71 OSDUT UM11 TERME UW71 ILHAN UT79 NAMAN |
| Aircraft | A320/M-SDE3FGHIRWY/LB1 |
Departure
| Time | 2026-05-06 09:22 |
|---|---|
| Airport | Heydar Aliyev International Airport (UBBB) |
Arrival
| Time | N/A |
|---|---|
| Airport | Istanbul Sabiha Gökçen International Airport (LTFJ) |
| Time | Latitude | Longitude | Altitude | Speed | Heading |
|---|---|---|---|---|---|
| 2026-05-06 09:08 | 40.46733 | 50.05150 | 9 ft | 0 kts | 179° |
| 2026-05-06 09:09 | 40.46743 | 50.05149 | 9 ft | 2 kts | 179° |
| 2026-05-06 09:09 | 40.46760 | 50.05149 | 10 ft | 2 kts | 179° |
| 2026-05-06 09:09 | 40.46777 | 50.05148 | 11 ft | 2 kts | 179° |
| 2026-05-06 09:10 | 40.46794 | 50.05148 | 11 ft | 2 kts | 179° |
| 2026-05-06 09:10 | 40.46811 | 50.05146 | 11 ft | 2 kts | 165° |
| 2026-05-06 09:10 | 40.46828 | 50.05140 | 10 ft | 3 kts | 153° |
| 2026-05-06 09:10 | 40.46843 | 50.05126 | 9 ft | 3 kts | 117° |
| 2026-05-06 09:11 | 40.46848 | 50.05104 | 9 ft | 3 kts | 81° |
| 2026-05-06 09:11 | 40.46842 | 50.05082 | 9 ft | 3 kts | 55° |
| 2026-05-06 09:11 | 40.46834 | 50.05062 | 11 ft | 2 kts | 81° |
| 2026-05-06 09:11 | 40.46833 | 50.05060 | 11 ft | 0 kts | 81° |
| 2026-05-06 09:13 | 40.46835 | 50.05072 | 12 ft | 6 kts | 82° |
| 2026-05-06 09:13 | 40.46837 | 50.05131 | 9 ft | 6 kts | 89° |
| 2026-05-06 09:13 | 40.46838 | 50.05196 | 11 ft | 9 kts | 89° |
| 2026-05-06 09:14 | 40.46840 | 50.05275 | 8 ft | 8 kts | 88° |
| 2026-05-06 09:14 | 40.46842 | 50.05346 | 8 ft | 7 kts | 90° |
| 2026-05-06 09:14 | 40.46814 | 50.05387 | 8 ft | 6 kts | 155° |
| 2026-05-06 09:14 | 40.46774 | 50.05404 | 8 ft | 8 kts | 161° |
| 2026-05-06 09:15 | 40.46723 | 50.05437 | 8 ft | 8 kts | 152° |
| 2026-05-06 09:15 | 40.46670 | 50.05474 | 8 ft | 12 kts | 151° |
| 2026-05-06 09:15 | 40.46604 | 50.05529 | 8 ft | 10 kts | 146° |
| 2026-05-06 09:15 | 40.46542 | 50.05583 | 8 ft | 12 kts | 145° |
| 2026-05-06 09:16 | 40.46517 | 50.05670 | 8 ft | 10 kts | 89° |
| 2026-05-06 09:16 | 40.46518 | 50.05756 | 8 ft | 9 kts | 89° |
| 2026-05-06 09:16 | 40.46520 | 50.05852 | 8 ft | 11 kts | 89° |
| 2026-05-06 09:16 | 40.46507 | 50.05943 | 8 ft | 9 kts | 137° |
| 2026-05-06 09:17 | 40.46450 | 50.05955 | 8 ft | 8 kts | 180° |
| 2026-05-06 09:17 | 40.46386 | 50.05954 | 8 ft | 12 kts | 178° |
| 2026-05-06 09:17 | 40.46295 | 50.05957 | 8 ft | 13 kts | 180° |
| 2026-05-06 09:17 | 40.46205 | 50.05958 | 8 ft | 13 kts | 180° |
| 2026-05-06 09:18 | 40.46106 | 50.05959 | 8 ft | 17 kts | 179° |
| 2026-05-06 09:18 | 40.45980 | 50.05961 | 8 ft | 19 kts | 180° |
| 2026-05-06 09:18 | 40.45885 | 50.05964 | 8 ft | 12 kts | 169° |
| 2026-05-06 09:18 | 40.45844 | 50.06043 | 8 ft | 10 kts | 96° |
| 2026-05-06 09:19 | 40.45802 | 50.06102 | 8 ft | 9 kts | 163° |
| 2026-05-06 09:19 | 40.45745 | 50.06107 | 8 ft | 7 kts | 178° |
| 2026-05-06 09:19 | 40.45698 | 50.06113 | 10 ft | 6 kts | 169° |
| 2026-05-06 09:19 | 40.45664 | 50.06139 | 8 ft | 5 kts | 134° |
| 2026-05-06 09:20 | 40.45653 | 50.06178 | 9 ft | 4 kts | 91° |
| 2026-05-06 09:20 | 40.45653 | 50.06189 | 8 ft | 0 kts | 90° |
| 2026-05-06 09:21 | 40.45653 | 50.06245 | 8 ft | 13 kts | 90° |
| 2026-05-06 09:21 | 40.45702 | 50.06322 | 8 ft | 12 kts | 3° |
| 2026-05-06 09:21 | 40.45761 | 50.06321 | 7 ft | 0 kts | 359° |
| 2026-05-06 09:21 | 40.45775 | 50.06321 | 7 ft | 10 kts | 359° |
| 2026-05-06 09:22 | 40.46072 | 50.06310 | 7 ft | 80 kts | 359° |
| 2026-05-06 09:22 | 40.46842 | 50.06301 | 10 ft | 139 kts | 359° |
| 2026-05-06 09:22 | 40.47952 | 50.06300 | 143 ft | 172 kts | 356° |
| 2026-05-06 09:22 | 40.49174 | 50.06195 | 776 ft | 177 kts | 351° |
| 2026-05-06 09:23 | 40.50399 | 50.05985 | 1529 ft | 181 kts | 346° |
| 2026-05-06 09:23 | 40.51703 | 50.05661 | 1890 ft | 203 kts | 345° |
| 2026-05-06 09:23 | 40.53153 | 50.05281 | 2313 ft | 227 kts | 345° |
| 2026-05-06 09:23 | 40.54790 | 50.04860 | 2797 ft | 251 kts | 346° |
| 2026-05-06 09:24 | 40.56544 | 50.04428 | 3620 ft | 259 kts | 347° |
| 2026-05-06 09:24 | 40.58323 | 50.03947 | 4561 ft | 262 kts | 339° |
| 2026-05-06 09:24 | 40.59914 | 50.02800 | 5458 ft | 262 kts | 317° |
| 2026-05-06 09:24 | 40.61045 | 50.00931 | 6357 ft | 263 kts | 295° |
| 2026-05-06 09:25 | 40.61544 | 49.98623 | 7243 ft | 266 kts | 274° |
| 2026-05-06 09:25 | 40.61587 | 49.96164 | 7932 ft | 271 kts | 270° |
| 2026-05-06 09:25 | 40.61615 | 49.93681 | 8847 ft | 272 kts | 271° |
| 2026-05-06 09:25 | 40.61646 | 49.91180 | 9711 ft | 275 kts | 271° |
| 2026-05-06 09:26 | 40.61678 | 49.88620 | 10337 ft | 289 kts | 271° |
| 2026-05-06 09:26 | 40.61713 | 49.85867 | 10671 ft | 310 kts | 271° |
| 2026-05-06 09:26 | 40.61751 | 49.82985 | 11330 ft | 319 kts | 271° |
| 2026-05-06 09:26 | 40.61789 | 49.80040 | 12097 ft | 323 kts | 271° |
| 2026-05-06 09:27 | 40.61828 | 49.77100 | 12846 ft | 327 kts | 271° |
| 2026-05-06 09:27 | 40.61846 | 49.74052 | 13592 ft | 331 kts | 270° |
| 2026-05-06 09:27 | 40.61830 | 49.71046 | 14292 ft | 335 kts | 269° |
| 2026-05-06 09:27 | 40.61797 | 49.67967 | 14983 ft | 338 kts | 269° |
| 2026-05-06 09:28 | 40.61758 | 49.64816 | 15658 ft | 342 kts | 269° |
| 2026-05-06 09:28 | 40.61720 | 49.61714 | 16302 ft | 345 kts | 269° |
| 2026-05-06 09:28 | 40.61684 | 49.58537 | 16950 ft | 349 kts | 269° |
| 2026-05-06 09:28 | 40.61649 | 49.55333 | 17584 ft | 352 kts | 269° |
| 2026-05-06 09:29 | 40.61616 | 49.52094 | 18195 ft | 356 kts | 269° |
| 2026-05-06 09:29 | 40.61584 | 49.48825 | 18793 ft | 359 kts | 269° |
| 2026-05-06 09:29 | 40.61551 | 49.45520 | 19367 ft | 362 kts | 269° |
| 2026-05-06 09:29 | 40.61517 | 49.42185 | 19924 ft | 366 kts | 269° |
| 2026-05-06 09:30 | 40.61484 | 49.38822 | 20466 ft | 370 kts | 269° |
| 2026-05-06 09:30 | 40.61447 | 49.35418 | 21003 ft | 373 kts | 269° |
| 2026-05-06 09:30 | 40.61407 | 49.31991 | 21534 ft | 376 kts | 269° |
| 2026-05-06 09:30 | 40.61365 | 49.28529 | 22040 ft | 380 kts | 269° |
| 2026-05-06 09:31 | 40.61320 | 49.25045 | 22528 ft | 383 kts | 269° |
| 2026-05-06 09:31 | 40.61275 | 49.21533 | 23009 ft | 386 kts | 269° |
| 2026-05-06 09:31 | 40.61230 | 49.17981 | 23487 ft | 389 kts | 269° |
| 2026-05-06 09:31 | 40.61173 | 49.14411 | 23949 ft | 392 kts | 269° |
| 2026-05-06 09:32 | 40.61109 | 49.10812 | 24401 ft | 395 kts | 269° |
| 2026-05-06 09:32 | 40.61038 | 49.07185 | 24838 ft | 398 kts | 268° |
| 2026-05-06 09:32 | 40.60964 | 49.03540 | 25255 ft | 401 kts | 268° |
| 2026-05-06 09:32 | 40.60891 | 48.99856 | 25675 ft | 403 kts | 268° |
| 2026-05-06 09:33 | 40.60814 | 48.96103 | 26075 ft | 407 kts | 268° |
| 2026-05-06 09:33 | 40.60738 | 48.92371 | 26469 ft | 409 kts | 268° |
| 2026-05-06 09:33 | 40.60661 | 48.88662 | 26829 ft | 413 kts | 268° |
| 2026-05-06 09:33 | 40.60579 | 48.84875 | 27204 ft | 415 kts | 268° |
| 2026-05-06 09:34 | 40.60493 | 48.81015 | 27604 ft | 418 kts | 268° |
| 2026-05-06 09:34 | 40.60411 | 48.77234 | 27926 ft | 420 kts | 268° |
| 2026-05-06 09:34 | 40.60328 | 48.73358 | 27999 ft | 412 kts | 268° |
| 2026-05-06 09:34 | 40.60246 | 48.69666 | 28007 ft | 396 kts | 268° |
| 2026-05-06 09:35 | 40.60166 | 48.66076 | 28007 ft | 390 kts | 268° |
| 2026-05-06 09:35 | 40.60000 | 48.58961 | 28007 ft | 389 kts | 268° |
| 2026-05-06 09:36 | 40.59829 | 48.51740 | 28151 ft | 405 kts | 268° |
| 2026-05-06 09:36 | 40.59741 | 48.47995 | 28291 ft | 414 kts | 268° |
| 2026-05-06 09:36 | 40.59647 | 48.44163 | 28414 ft | 422 kts | 268° |
| 2026-05-06 09:36 | 40.59551 | 48.40266 | 28543 ft | 430 kts | 268° |
| 2026-05-06 09:37 | 40.59453 | 48.36299 | 28670 ft | 438 kts | 268° |
| 2026-05-06 09:37 | 40.59352 | 48.32274 | 28867 ft | 442 kts | 268° |
| 2026-05-06 09:37 | 40.59250 | 48.28221 | 29229 ft | 443 kts | 268° |
| 2026-05-06 09:37 | 40.59145 | 48.24180 | 29623 ft | 442 kts | 268° |
| 2026-05-06 09:38 | 40.59039 | 48.20138 | 30030 ft | 441 kts | 268° |
| 2026-05-06 09:38 | 40.58933 | 48.16105 | 30423 ft | 441 kts | 268° |
| 2026-05-06 09:38 | 40.58824 | 48.12074 | 30804 ft | 441 kts | 268° |
| 2026-05-06 09:38 | 40.58714 | 48.08050 | 31202 ft | 439 kts | 268° |
| 2026-05-06 09:39 | 40.58601 | 48.04033 | 31599 ft | 438 kts | 268° |
| 2026-05-06 09:39 | 40.58484 | 48.00039 | 31977 ft | 438 kts | 268° |
| 2026-05-06 09:39 | 40.58366 | 47.96041 | 32366 ft | 437 kts | 268° |
| 2026-05-06 09:39 | 40.58316 | 47.92047 | 32756 ft | 435 kts | 270° |
| 2026-05-06 09:40 | 40.58389 | 47.88065 | 33135 ft | 434 kts | 272° |
| 2026-05-06 09:40 | 40.58543 | 47.84106 | 33498 ft | 433 kts | 273° |
| 2026-05-06 09:40 | 40.58917 | 47.76202 | 34219 ft | 432 kts | 273° |
| 2026-05-06 09:41 | 40.59084 | 47.72257 | 34540 ft | 431 kts | 273° |
| 2026-05-06 09:41 | 40.59228 | 47.68321 | 34860 ft | 431 kts | 272° |
| 2026-05-06 09:41 | 40.59352 | 47.64440 | 35166 ft | 430 kts | 272° |
| 2026-05-06 09:41 | 40.59469 | 47.60515 | 35465 ft | 429 kts | 272° |
| 2026-05-06 09:42 | 40.59581 | 47.56591 | 35750 ft | 429 kts | 272° |
| 2026-05-06 09:42 | 40.59691 | 47.52672 | 36026 ft | 428 kts | 272° |
| 2026-05-06 09:42 | 40.59804 | 47.48756 | 36297 ft | 428 kts | 272° |
| 2026-05-06 09:42 | 40.59918 | 47.44848 | 36549 ft | 428 kts | 272° |
| 2026-05-06 09:43 | 40.60030 | 47.40937 | 36787 ft | 427 kts | 272° |
| 2026-05-06 09:43 | 40.60141 | 47.37030 | 37009 ft | 428 kts | 272° |
| 2026-05-06 09:43 | 40.60256 | 47.33067 | 37228 ft | 427 kts | 272° |
| 2026-05-06 09:43 | 40.60368 | 47.29216 | 37435 ft | 427 kts | 272° |
| 2026-05-06 09:44 | 40.60480 | 47.25302 | 37645 ft | 428 kts | 272° |
| 2026-05-06 09:44 | 40.60587 | 47.21388 | 37846 ft | 428 kts | 272° |
| 2026-05-06 09:44 | 40.60754 | 47.17488 | 37981 ft | 428 kts | 277° |
| 2026-05-06 09:44 | 40.61152 | 47.13596 | 38010 ft | 428 kts | 277° |
| 2026-05-06 09:45 | 40.61959 | 47.05832 | 38009 ft | 428 kts | 277° |
| 2026-05-06 09:45 | 40.62761 | 46.98072 | 38009 ft | 428 kts | 277° |
| 2026-05-06 09:46 | 40.63544 | 46.90298 | 38009 ft | 428 kts | 277° |
| 2026-05-06 09:46 | 40.64327 | 46.82520 | 38010 ft | 428 kts | 277° |
| 2026-05-06 09:47 | 40.65114 | 46.74742 | 38013 ft | 429 kts | 277° |
| 2026-05-06 09:47 | 40.65891 | 46.66948 | 38016 ft | 429 kts | 277° |
| 2026-05-06 09:48 | 40.66659 | 46.59149 | 38017 ft | 430 kts | 277° |
| 2026-05-06 09:48 | 40.67428 | 46.51342 | 38020 ft | 430 kts | 277° |
| 2026-05-06 09:49 | 40.68187 | 46.43529 | 38018 ft | 430 kts | 277° |
| 2026-05-06 09:49 | 40.68944 | 46.35707 | 38018 ft | 430 kts | 277° |
| 2026-05-06 09:50 | 40.69696 | 46.27889 | 38018 ft | 431 kts | 277° |
| 2026-05-06 09:50 | 40.70436 | 46.20058 | 38016 ft | 431 kts | 277° |
| 2026-05-06 09:51 | 40.71180 | 46.12210 | 38010 ft | 432 kts | 277° |
| 2026-05-06 09:51 | 40.71927 | 46.04356 | 38008 ft | 432 kts | 277° |
| 2026-05-06 09:52 | 40.72663 | 45.96483 | 38001 ft | 433 kts | 277° |
| 2026-05-06 09:52 | 40.73390 | 45.88597 | 37996 ft | 434 kts | 277° |
| 2026-05-06 09:53 | 40.73996 | 45.81981 | 37993 ft | 435 kts | 277° |
| 2026-05-06 09:53 | 40.74835 | 45.72773 | 37995 ft | 436 kts | 276° |
| 2026-05-06 09:54 | 40.75439 | 45.66118 | 38006 ft | 436 kts | 276° |
| 2026-05-06 09:54 | 40.76155 | 45.58165 | 38009 ft | 436 kts | 276° |
| 2026-05-06 09:55 | 40.76858 | 45.50208 | 38011 ft | 437 kts | 276° |
| 2026-05-06 09:55 | 40.77354 | 45.42223 | 38011 ft | 437 kts | 273° |
| 2026-05-06 09:56 | 40.77658 | 45.34216 | 38017 ft | 437 kts | 272° |
| 2026-05-06 09:56 | 40.77963 | 45.26182 | 38015 ft | 438 kts | 273° |
| 2026-05-06 09:57 | 40.78318 | 45.18152 | 38013 ft | 438 kts | 273° |
| 2026-05-06 09:57 | 40.78685 | 45.10120 | 38019 ft | 439 kts | 273° |
| 2026-05-06 09:58 | 40.79042 | 45.02074 | 38032 ft | 438 kts | 273° |
| 2026-05-06 09:58 | 40.79382 | 44.94052 | 38031 ft | 438 kts | 273° |
| 2026-05-06 09:59 | 40.79714 | 44.86027 | 38024 ft | 438 kts | 273° |
| 2026-05-06 09:59 | 40.80044 | 44.78017 | 38003 ft | 438 kts | 273° |
| 2026-05-06 10:00 | 40.80364 | 44.70013 | 37993 ft | 440 kts | 273° |
| 2026-05-06 10:00 | 40.80686 | 44.61881 | 37992 ft | 441 kts | 273° |